GANR

Nioro du Sahel Airport

Nioro du Sahel, Mali
METAR GANR 160900Z 08006KT 9000 NSC 20/M04 Q1018
Observed Flight Rules
Dec-16 @ 09:00 UTC (2 hours ago) Visual Flight Rules
Wind Visibility Clouds
80° at 6 knots 8,996 meters
  • Clear skies
Temperatures Readings
Current 20°C / 68°F
Dewpoint -4°C / 25°F
Humidity 20%
Altimeter 30.06" Hg
Pressure 1018 hPa
Elevation 237
METAR GANR 160900Z 08006KT 9000 NSC 20/M04 Q1018
Observed Flight Rules
Dec-16 @ 09:00 UTC
(2 hours ago)
VFR
Wind Visibility
80° at 6 knots 8,996 meters
Clouds
  • Clear skies
Temperature Dewpoint
20°C / 68°F -4°C / 25°F
Humidity Altimeter Pressure
20% 30.06" Hg 1018 hPa